sensor_id;sensor_type;location;lat;lon;timestamp;P1;durP1;ratioP1;P2;durP2;ratioP2
7957;SDS011;4024;52.172;5.378;2023-12-22T00:01:54;12.40;;;2.90;;
7957;SDS011;4024;52.172;5.378;2023-12-22T00:04:20;7.43;;;2.67;;
7957;SDS011;4024;52.172;5.378;2023-12-22T00:06:45;8.63;;;2.57;;
7957;SDS011;4024;52.172;5.378;2023-12-22T00:09:13;8.57;;;2.50;;
7957;SDS011;4024;52.172;5.378;2023-12-22T00:11:38;9.43;;;2.50;;
7957;SDS011;4024;52.172;5.378;2023-12-22T00:14:04;6.77;;;2.13;;
7957;SDS011;4024;52.172;5.378;2023-12-22T00:16:30;10.43;;;2.70;;
7957;SDS011;4024;52.172;5.378;2023-12-22T00:18:55;13.37;;;3.20;;
7957;SDS011;4024;52.172;5.378;2023-12-22T00:21:21;7.30;;;2.80;;
7957;SDS011;4024;52.172;5.378;2023-12-22T00:23:46;6.83;;;2.43;;
7957;SDS011;4024;52.172;5.378;2023-12-22T00:26:12;7.17;;;2.57;;
7957;SDS011;4024;52.172;5.378;2023-12-22T00:28:37;9.33;;;2.83;;
7957;SDS011;4024;52.172;5.378;2023-12-22T00:31:03;8.23;;;2.63;;
7957;SDS011;4024;52.172;5.378;2023-12-22T00:33:29;9.90;;;2.87;;
7957;SDS011;4024;52.172;5.378;2023-12-22T00:35:54;7.93;;;2.27;;
7957;SDS011;4024;52.172;5.378;2023-12-22T00:38:20;6.67;;;2.10;;
7957;SDS011;4024;52.172;5.378;2023-12-22T00:40:45;8.90;;;2.03;;
7957;SDS011;4024;52.172;5.378;2023-12-22T00:43:11;8.43;;;2.13;;
7957;SDS011;4024;52.172;5.378;2023-12-22T00:45:36;6.33;;;2.10;;
7957;SDS011;4024;52.172;5.378;2023-12-22T00:48:02;4.20;;;2.10;;
7957;SDS011;4024;52.172;5.378;2023-12-22T00:50:28;7.90;;;2.40;;
7957;SDS011;4024;52.172;5.378;2023-12-22T00:52:53;7.13;;;2.50;;
7957;SDS011;4024;52.172;5.378;2023-12-22T00:55:19;8.83;;;2.60;;
7957;SDS011;4024;52.172;5.378;2023-12-22T00:57:45;4.90;;;2.40;;
7957;SDS011;4024;52.172;5.378;2023-12-22T01:00:11;10.43;;;3.37;;
7957;SDS011;4024;52.172;5.378;2023-12-22T01:02:37;11.33;;;2.83;;
7957;SDS011;4024;52.172;5.378;2023-12-22T01:05:04;6.70;;;2.80;;
7957;SDS011;4024;52.172;5.378;2023-12-22T01:07:29;8.47;;;2.30;;
7957;SDS011;4024;52.172;5.378;2023-12-22T01:09:55;8.73;;;2.63;;
7957;SDS011;4024;52.172;5.378;2023-12-22T01:12:21;10.83;;;2.83;;
7957;SDS011;4024;52.172;5.378;2023-12-22T01:14:47;9.40;;;2.73;;
7957;SDS011;4024;52.172;5.378;2023-12-22T01:17:15;12.57;;;2.50;;
7957;SDS011;4024;52.172;5.378;2023-12-22T01:19:41;7.27;;;2.23;;
7957;SDS011;4024;52.172;5.378;2023-12-22T01:22:07;10.83;;;2.67;;
7957;SDS011;4024;52.172;5.378;2023-12-22T01:24:32;10.07;;;2.80;;
7957;SDS011;4024;52.172;5.378;2023-12-22T01:26:58;7.43;;;2.60;;
7957;SDS011;4024;52.172;5.378;2023-12-22T01:29:24;12.17;;;3.10;;
7957;SDS011;4024;52.172;5.378;2023-12-22T01:31:50;12.40;;;2.90;;
7957;SDS011;4024;52.172;5.378;2023-12-22T01:34:15;10.03;;;3.07;;
7957;SDS011;4024;52.172;5.378;2023-12-22T01:36:41;10.07;;;2.80;;
7957;SDS011;4024;52.172;5.378;2023-12-22T01:39:06;12.73;;;3.37;;
7957;SDS011;4024;52.172;5.378;2023-12-22T01:41:32;11.03;;;3.10;;
7957;SDS011;4024;52.172;5.378;2023-12-22T01:43:57;10.17;;;2.97;;
7957;SDS011;4024;52.172;5.378;2023-12-22T01:46:23;11.57;;;3.23;;
7957;SDS011;4024;52.172;5.378;2023-12-22T01:48:49;13.83;;;2.93;;
7957;SDS011;4024;52.172;5.378;2023-12-22T01:51:15;7.60;;;2.83;;
7957;SDS011;4024;52.172;5.378;2023-12-22T01:53:41;13.73;;;3.17;;
7957;SDS011;4024;52.172;5.378;2023-12-22T01:56:06;10.27;;;3.20;;
7957;SDS011;4024;52.172;5.378;2023-12-22T01:58:33;11.73;;;3.70;;
7957;SDS011;4024;52.172;5.378;2023-12-22T02:01:01;13.83;;;3.43;;
7957;SDS011;4024;52.172;5.378;2023-12-22T02:03:27;9.80;;;3.40;;
7957;SDS011;4024;52.172;5.378;2023-12-22T02:05:53;11.87;;;3.20;;
7957;SDS011;4024;52.172;5.378;2023-12-22T02:08:19;10.13;;;3.53;;
7957;SDS011;4024;52.172;5.378;2023-12-22T02:10:47;9.40;;;3.00;;
7957;SDS011;4024;52.172;5.378;2023-12-22T02:13:13;16.90;;;3.27;;
7957;SDS011;4024;52.172;5.378;2023-12-22T02:15:41;16.33;;;4.47;;
7957;SDS011;4024;52.172;5.378;2023-12-22T02:18:09;11.30;;;3.30;;
7957;SDS011;4024;52.172;5.378;2023-12-22T02:20:37;20.50;;;4.90;;
7957;SDS011;4024;52.172;5.378;2023-12-22T02:23:03;17.07;;;4.30;;
7957;SDS011;4024;52.172;5.378;2023-12-22T02:25:29;11.80;;;3.87;;
7957;SDS011;4024;52.172;5.378;2023-12-22T02:27:58;18.03;;;3.57;;
7957;SDS011;4024;52.172;5.378;2023-12-22T02:33:19;17.53;;;3.90;;
7957;SDS011;4024;52.172;5.378;2023-12-22T02:35:47;17.47;;;4.43;;
7957;SDS011;4024;52.172;5.378;2023-12-22T02:38:16;20.47;;;4.70;;
7957;SDS011;4024;52.172;5.378;2023-12-22T02:40:44;23.73;;;4.50;;
7957;SDS011;4024;52.172;5.378;2023-12-22T02:43:10;21.67;;;4.27;;
7957;SDS011;4024;52.172;5.378;2023-12-22T02:45:36;22.67;;;5.03;;
7957;SDS011;4024;52.172;5.378;2023-12-22T02:48:02;22.20;;;5.40;;
7957;SDS011;4024;52.172;5.378;2023-12-22T02:50:28;20.33;;;4.57;;
7957;SDS011;4024;52.172;5.378;2023-12-22T02:52:53;21.57;;;4.83;;
7957;SDS011;4024;52.172;5.378;2023-12-22T02:55:19;24.67;;;5.23;;
7957;SDS011;4024;52.172;5.378;2023-12-22T02:57:44;16.80;;;4.70;;
7957;SDS011;4024;52.172;5.378;2023-12-22T03:00:10;21.57;;;5.00;;
7957;SDS011;4024;52.172;5.378;2023-12-22T03:02:36;22.83;;;4.80;;
7957;SDS011;4024;52.172;5.378;2023-12-22T03:05:01;16.70;;;4.87;;
7957;SDS011;4024;52.172;5.378;2023-12-22T03:07:27;19.30;;;4.77;;
7957;SDS011;4024;52.172;5.378;2023-12-22T03:09:53;15.93;;;4.83;;
7957;SDS011;4024;52.172;5.378;2023-12-22T03:12:18;20.60;;;4.77;;
7957;SDS011;4024;52.172;5.378;2023-12-22T03:14:44;21.00;;;4.77;;
7957;SDS011;4024;52.172;5.378;2023-12-22T03:17:10;22.27;;;5.27;;
7957;SDS011;4024;52.172;5.378;2023-12-22T03:19:36;19.27;;;4.63;;
7957;SDS011;4024;52.172;5.378;2023-12-22T03:22:02;18.67;;;4.60;;
7957;SDS011;4024;52.172;5.378;2023-12-22T03:24:27;17.50;;;4.90;;
7957;SDS011;4024;52.172;5.378;2023-12-22T03:26:53;14.53;;;4.43;;
7957;SDS011;4024;52.172;5.378;2023-12-22T03:29:19;21.53;;;4.90;;
7957;SDS011;4024;52.172;5.378;2023-12-22T03:31:45;18.43;;;4.33;;
7957;SDS011;4024;52.172;5.378;2023-12-22T03:34:11;15.13;;;4.80;;
7957;SDS011;4024;52.172;5.378;2023-12-22T03:36:37;12.30;;;3.53;;
7957;SDS011;4024;52.172;5.378;2023-12-22T03:39:03;16.53;;;3.53;;
7957;SDS011;4024;52.172;5.378;2023-12-22T03:41:29;7.13;;;2.03;;
7957;SDS011;4024;52.172;5.378;2023-12-22T03:43:55;7.10;;;2.50;;
7957;SDS011;4024;52.172;5.378;2023-12-22T03:46:21;9.60;;;3.07;;
7957;SDS011;4024;52.172;5.378;2023-12-22T03:48:47;8.20;;;3.00;;
7957;SDS011;4024;52.172;5.378;2023-12-22T03:51:12;8.03;;;2.67;;
7957;SDS011;4024;52.172;5.378;2023-12-22T03:53:39;9.07;;;2.30;;
7957;SDS011;4024;52.172;5.378;2023-12-22T03:56:06;5.50;;;2.30;;
7957;SDS011;4024;52.172;5.378;2023-12-22T03:58:32;12.73;;;2.60;;
7957;SDS011;4024;52.172;5.378;2023-12-22T04:00:58;8.93;;;2.27;;
7957;SDS011;4024;52.172;5.378;2023-12-22T04:03:23;9.10;;;2.57;;
7957;SDS011;4024;52.172;5.378;2023-12-22T04:05:49;5.17;;;2.20;;
7957;SDS011;4024;52.172;5.378;2023-12-22T04:08:15;11.63;;;2.93;;
7957;SDS011;4024;52.172;5.378;2023-12-22T04:10:40;6.83;;;2.40;;
7957;SDS011;4024;52.172;5.378;2023-12-22T04:13:06;9.20;;;2.77;;
7957;SDS011;4024;52.172;5.378;2023-12-22T04:15:31;11.07;;;3.13;;
7957;SDS011;4024;52.172;5.378;2023-12-22T04:17:57;14.47;;;3.20;;
7957;SDS011;4024;52.172;5.378;2023-12-22T04:20:22;12.00;;;3.27;;
7957;SDS011;4024;52.172;5.378;2023-12-22T04:22:49;8.10;;;2.53;;
7957;SDS011;4024;52.172;5.378;2023-12-22T04:25:14;10.23;;;3.10;;
7957;SDS011;4024;52.172;5.378;2023-12-22T04:27:40;12.47;;;3.00;;
7957;SDS011;4024;52.172;5.378;2023-12-22T04:30:05;11.47;;;3.43;;
7957;SDS011;4024;52.172;5.378;2023-12-22T04:32:32;6.03;;;3.00;;
7957;SDS011;4024;52.172;5.378;2023-12-22T04:34:58;15.50;;;2.90;;
7957;SDS011;4024;52.172;5.378;2023-12-22T04:37:24;11.60;;;3.37;;
7957;SDS011;4024;52.172;5.378;2023-12-22T04:39:49;13.87;;;3.93;;
7957;SDS011;4024;52.172;5.378;2023-12-22T04:42:15;16.07;;;3.90;;
7957;SDS011;4024;52.172;5.378;2023-12-22T04:44:40;19.50;;;4.43;;
7957;SDS011;4024;52.172;5.378;2023-12-22T04:47:06;12.17;;;3.97;;
7957;SDS011;4024;52.172;5.378;2023-12-22T04:49:32;16.87;;;3.83;;
7957;SDS011;4024;52.172;5.378;2023-12-22T04:51:57;15.17;;;3.97;;
7957;SDS011;4024;52.172;5.378;2023-12-22T04:54:23;18.10;;;5.13;;
7957;SDS011;4024;52.172;5.378;2023-12-22T04:56:49;14.53;;;4.23;;
7957;SDS011;4024;52.172;5.378;2023-12-22T04:59:14;17.63;;;3.90;;
7957;SDS011;4024;52.172;5.378;2023-12-22T05:01:40;9.73;;;3.33;;
7957;SDS011;4024;52.172;5.378;2023-12-22T05:04:07;19.83;;;4.47;;
7957;SDS011;4024;52.172;5.378;2023-12-22T05:06:34;23.93;;;4.53;;
7957;SDS011;4024;52.172;5.378;2023-12-22T05:09:00;16.17;;;3.90;;
7957;SDS011;4024;52.172;5.378;2023-12-22T05:11:25;17.90;;;4.17;;
7957;SDS011;4024;52.172;5.378;2023-12-22T05:13:51;20.70;;;4.80;;
7957;SDS011;4024;52.172;5.378;2023-12-22T05:16:16;16.70;;;3.87;;
7957;SDS011;4024;52.172;5.378;2023-12-22T05:18:42;13.93;;;3.83;;
7957;SDS011;4024;52.172;5.378;2023-12-22T05:21:08;21.80;;;4.47;;
7957;SDS011;4024;52.172;5.378;2023-12-22T05:23:37;15.00;;;4.53;;
7957;SDS011;4024;52.172;5.378;2023-12-22T05:26:03;18.17;;;4.27;;
7957;SDS011;4024;52.172;5.378;2023-12-22T05:28:29;18.63;;;4.70;;
7957;SDS011;4024;52.172;5.378;2023-12-22T05:30:54;20.73;;;4.50;;
7957;SDS011;4024;52.172;5.378;2023-12-22T05:33:20;18.10;;;4.23;;
7957;SDS011;4024;52.172;5.378;2023-12-22T05:35:45;19.70;;;4.43;;
7957;SDS011;4024;52.172;5.378;2023-12-22T05:38:11;19.07;;;4.20;;
7957;SDS011;4024;52.172;5.378;2023-12-22T05:40:37;18.93;;;3.93;;
7957;SDS011;4024;52.172;5.378;2023-12-22T05:43:02;16.17;;;4.43;;
7957;SDS011;4024;52.172;5.378;2023-12-22T05:45:28;15.93;;;4.10;;
7957;SDS011;4024;52.172;5.378;2023-12-22T05:47:53;15.67;;;3.87;;
7957;SDS011;4024;52.172;5.378;2023-12-22T05:50:19;17.57;;;4.07;;
7957;SDS011;4024;52.172;5.378;2023-12-22T05:52:44;11.57;;;4.23;;
7957;SDS011;4024;52.172;5.378;2023-12-22T05:55:10;11.83;;;3.43;;
7957;SDS011;4024;52.172;5.378;2023-12-22T05:57:36;18.03;;;4.43;;
7957;SDS011;4024;52.172;5.378;2023-12-22T06:00:02;14.20;;;3.30;;
7957;SDS011;4024;52.172;5.378;2023-12-22T06:02:32;12.60;;;3.40;;
7957;SDS011;4024;52.172;5.378;2023-12-22T06:05:01;14.87;;;3.80;;
7957;SDS011;4024;52.172;5.378;2023-12-22T06:07:26;12.13;;;3.83;;
7957;SDS011;4024;52.172;5.378;2023-12-22T06:09:52;10.37;;;3.50;;
7957;SDS011;4024;52.172;5.378;2023-12-22T06:12:18;13.53;;;4.27;;
7957;SDS011;4024;52.172;5.378;2023-12-22T06:14:43;12.03;;;3.83;;
7957;SDS011;4024;52.172;5.378;2023-12-22T06:17:09;16.73;;;3.97;;
7957;SDS011;4024;52.172;5.378;2023-12-22T06:19:35;21.07;;;3.80;;
7957;SDS011;4024;52.172;5.378;2023-12-22T06:22:01;17.40;;;4.83;;
7957;SDS011;4024;52.172;5.378;2023-12-22T06:24:27;15.37;;;3.77;;
7957;SDS011;4024;52.172;5.378;2023-12-22T06:26:52;15.00;;;4.33;;
7957;SDS011;4024;52.172;5.378;2023-12-22T06:29:18;15.70;;;4.07;;
7957;SDS011;4024;52.172;5.378;2023-12-22T06:31:44;15.67;;;4.37;;
7957;SDS011;4024;52.172;5.378;2023-12-22T06:34:09;15.60;;;4.70;;
7957;SDS011;4024;52.172;5.378;2023-12-22T06:36:35;17.90;;;4.57;;
7957;SDS011;4024;52.172;5.378;2023-12-22T06:39:00;15.80;;;4.07;;
7957;SDS011;4024;52.172;5.378;2023-12-22T06:41:29;13.87;;;4.37;;
7957;SDS011;4024;52.172;5.378;2023-12-22T06:43:58;21.97;;;4.83;;
7957;SDS011;4024;52.172;5.378;2023-12-22T06:46:24;19.50;;;5.30;;
7957;SDS011;4024;52.172;5.378;2023-12-22T06:48:51;18.47;;;5.00;;
7957;SDS011;4024;52.172;5.378;2023-12-22T06:53:48;10.80;;;4.70;;
7957;SDS011;4024;52.172;5.378;2023-12-22T06:56:18;12.97;;;4.37;;
7957;SDS011;4024;52.172;5.378;2023-12-22T06:58:45;18.60;;;5.37;;
7957;SDS011;4024;52.172;5.378;2023-12-22T07:01:17;14.27;;;4.87;;
7957;SDS011;4024;52.172;5.378;2023-12-22T07:03:44;20.23;;;4.80;;
7957;SDS011;4024;52.172;5.378;2023-12-22T07:06:10;19.33;;;5.30;;
7957;SDS011;4024;52.172;5.378;2023-12-22T07:08:36;19.13;;;5.10;;
7957;SDS011;4024;52.172;5.378;2023-12-22T07:11:02;21.13;;;5.73;;
7957;SDS011;4024;52.172;5.378;2023-12-22T07:13:27;17.83;;;4.57;;
7957;SDS011;4024;52.172;5.378;2023-12-22T07:15:53;18.00;;;5.50;;
7957;SDS011;4024;52.172;5.378;2023-12-22T07:18:18;22.73;;;5.43;;
7957;SDS011;4024;52.172;5.378;2023-12-22T07:20:44;27.40;;;6.00;;
7957;SDS011;4024;52.172;5.378;2023-12-22T07:23:10;19.87;;;5.03;;
7957;SDS011;4024;52.172;5.378;2023-12-22T07:25:37;21.07;;;5.37;;
7957;SDS011;4024;52.172;5.378;2023-12-22T07:28:03;26.60;;;6.10;;
7957;SDS011;4024;52.172;5.378;2023-12-22T07:30:30;31.73;;;6.60;;
7957;SDS011;4024;52.172;5.378;2023-12-22T07:32:55;25.70;;;6.17;;
7957;SDS011;4024;52.172;5.378;2023-12-22T07:35:21;21.80;;;6.17;;
7957;SDS011;4024;52.172;5.378;2023-12-22T07:37:47;35.83;;;6.63;;
7957;SDS011;4024;52.172;5.378;2023-12-22T07:40:13;28.87;;;6.93;;
7957;SDS011;4024;52.172;5.378;2023-12-22T07:42:38;23.57;;;5.93;;
7957;SDS011;4024;52.172;5.378;2023-12-22T07:45:04;28.70;;;6.10;;
7957;SDS011;4024;52.172;5.378;2023-12-22T07:47:31;26.10;;;6.77;;
7957;SDS011;4024;52.172;5.378;2023-12-22T07:49:57;19.47;;;5.00;;
7957;SDS011;4024;52.172;5.378;2023-12-22T07:52:23;19.17;;;5.23;;
7957;SDS011;4024;52.172;5.378;2023-12-22T07:54:48;19.13;;;4.93;;
7957;SDS011;4024;52.172;5.378;2023-12-22T07:57:14;17.37;;;4.83;;
7957;SDS011;4024;52.172;5.378;2023-12-22T07:59:39;21.73;;;4.97;;
7957;SDS011;4024;52.172;5.378;2023-12-22T08:02:05;14.67;;;3.97;;
7957;SDS011;4024;52.172;5.378;2023-12-22T08:04:31;17.50;;;5.07;;
7957;SDS011;4024;52.172;5.378;2023-12-22T08:06:57;18.60;;;4.60;;
7957;SDS011;4024;52.172;5.378;2023-12-22T08:09:22;23.33;;;6.00;;
7957;SDS011;4024;52.172;5.378;2023-12-22T08:11:48;24.13;;;6.87;;
7957;SDS011;4024;52.172;5.378;2023-12-22T08:14:17;29.63;;;6.33;;
7957;SDS011;4024;52.172;5.378;2023-12-22T08:16:46;24.00;;;6.43;;
7957;SDS011;4024;52.172;5.378;2023-12-22T08:19:12;29.10;;;6.57;;
7957;SDS011;4024;52.172;5.378;2023-12-22T08:21:37;23.60;;;6.93;;
7957;SDS011;4024;52.172;5.378;2023-12-22T08:24:03;30.63;;;6.57;;
7957;SDS011;4024;52.172;5.378;2023-12-22T08:26:29;24.17;;;6.50;;
7957;SDS011;4024;52.172;5.378;2023-12-22T08:28:54;27.70;;;6.63;;
7957;SDS011;4024;52.172;5.378;2023-12-22T08:31:20;24.87;;;5.80;;
7957;SDS011;4024;52.172;5.378;2023-12-22T08:33:46;23.63;;;6.53;;
7957;SDS011;4024;52.172;5.378;2023-12-22T08:36:12;21.60;;;6.20;;
7957;SDS011;4024;52.172;5.378;2023-12-22T08:38:38;20.37;;;5.90;;
7957;SDS011;4024;52.172;5.378;2023-12-22T08:41:06;15.23;;;4.67;;
7957;SDS011;4024;52.172;5.378;2023-12-22T08:43:32;17.47;;;4.27;;
7957;SDS011;4024;52.172;5.378;2023-12-22T08:45:58;16.37;;;4.67;;
7957;SDS011;4024;52.172;5.378;2023-12-22T08:48:23;13.30;;;4.00;;
7957;SDS011;4024;52.172;5.378;2023-12-22T08:50:49;12.13;;;4.30;;
7957;SDS011;4024;52.172;5.378;2023-12-22T08:53:15;14.50;;;4.47;;
7957;SDS011;4024;52.172;5.378;2023-12-22T08:55:40;19.17;;;4.13;;
7957;SDS011;4024;52.172;5.378;2023-12-22T08:58:06;13.87;;;4.03;;
7957;SDS011;4024;52.172;5.378;2023-12-22T09:00:31;14.27;;;4.87;;
7957;SDS011;4024;52.172;5.378;2023-12-22T09:02:57;16.60;;;4.77;;
7957;SDS011;4024;52.172;5.378;2023-12-22T09:05:22;14.37;;;4.70;;
7957;SDS011;4024;52.172;5.378;2023-12-22T09:07:48;14.93;;;5.00;;
7957;SDS011;4024;52.172;5.378;2023-12-22T09:10:14;18.63;;;4.63;;
7957;SDS011;4024;52.172;5.378;2023-12-22T09:12:39;18.33;;;4.70;;
7957;SDS011;4024;52.172;5.378;2023-12-22T09:15:05;16.83;;;4.83;;
7957;SDS011;4024;52.172;5.378;2023-12-22T09:17:30;13.17;;;5.40;;
7957;SDS011;4024;52.172;5.378;2023-12-22T09:19:57;21.63;;;4.80;;
7957;SDS011;4024;52.172;5.378;2023-12-22T09:22:23;13.97;;;4.23;;
7957;SDS011;4024;52.172;5.378;2023-12-22T09:24:48;6.07;;;2.80;;
7957;SDS011;4024;52.172;5.378;2023-12-22T09:27:14;7.37;;;2.30;;
7957;SDS011;4024;52.172;5.378;2023-12-22T09:29:40;4.33;;;2.10;;
7957;SDS011;4024;52.172;5.378;2023-12-22T09:32:05;5.27;;;1.80;;
7957;SDS011;4024;52.172;5.378;2023-12-22T09:34:31;3.47;;;1.80;;
7957;SDS011;4024;52.172;5.378;2023-12-22T09:36:57;3.07;;;1.47;;
7957;SDS011;4024;52.172;5.378;2023-12-22T09:39:22;4.67;;;1.90;;
7957;SDS011;4024;52.172;5.378;2023-12-22T09:41:48;2.43;;;1.53;;
7957;SDS011;4024;52.172;5.378;2023-12-22T09:44:18;2.60;;;1.57;;
7957;SDS011;4024;52.172;5.378;2023-12-22T09:46:46;7.03;;;1.60;;
7957;SDS011;4024;52.172;5.378;2023-12-22T09:49:15;2.63;;;1.90;;
7957;SDS011;4024;52.172;5.378;2023-12-22T09:51:42;7.60;;;2.43;;
7957;SDS011;4024;52.172;5.378;2023-12-22T09:54:09;8.13;;;2.50;;
7957;SDS011;4024;52.172;5.378;2023-12-22T09:56:36;9.60;;;2.93;;
7957;SDS011;4024;52.172;5.378;2023-12-22T09:59:13;10.30;;;3.17;;
7957;SDS011;4024;52.172;5.378;2023-12-22T10:01:43;10.37;;;3.17;;
7957;SDS011;4024;52.172;5.378;2023-12-22T10:04:13;12.77;;;2.87;;
7957;SDS011;4024;52.172;5.378;2023-12-22T10:06:39;16.10;;;3.30;;
7957;SDS011;4024;52.172;5.378;2023-12-22T10:09:06;9.57;;;3.23;;
7957;SDS011;4024;52.172;5.378;2023-12-22T10:11:33;13.83;;;3.37;;
7957;SDS011;4024;52.172;5.378;2023-12-22T10:14:01;12.77;;;3.90;;
7957;SDS011;4024;52.172;5.378;2023-12-22T10:16:27;10.53;;;2.90;;
7957;SDS011;4024;52.172;5.378;2023-12-22T10:18:53;11.13;;;3.30;;
7957;SDS011;4024;52.172;5.378;2023-12-22T10:21:19;12.30;;;3.97;;
7957;SDS011;4024;52.172;5.378;2023-12-22T10:23:44;15.70;;;2.97;;
7957;SDS011;4024;52.172;5.378;2023-12-22T10:26:13;13.27;;;3.67;;
7957;SDS011;4024;52.172;5.378;2023-12-22T10:28:40;12.60;;;3.10;;
7957;SDS011;4024;52.172;5.378;2023-12-22T10:31:06;7.07;;;3.27;;
7957;SDS011;4024;52.172;5.378;2023-12-22T10:33:32;10.43;;;3.57;;
7957;SDS011;4024;52.172;5.378;2023-12-22T10:35:58;8.27;;;3.53;;
7957;SDS011;4024;52.172;5.378;2023-12-22T10:38:25;8.50;;;2.93;;
7957;SDS011;4024;52.172;5.378;2023-12-22T10:40:57;11.33;;;3.53;;
7957;SDS011;4024;52.172;5.378;2023-12-22T10:43:22;9.30;;;3.60;;
7957;SDS011;4024;52.172;5.378;2023-12-22T10:45:51;11.10;;;2.87;;
7957;SDS011;4024;52.172;5.378;2023-12-22T10:48:19;7.60;;;2.83;;
7957;SDS011;4024;52.172;5.378;2023-12-22T10:50:45;10.40;;;3.10;;
7957;SDS011;4024;52.172;5.378;2023-12-22T10:53:12;10.00;;;3.13;;
7957;SDS011;4024;52.172;5.378;2023-12-22T10:55:37;10.40;;;3.20;;
7957;SDS011;4024;52.172;5.378;2023-12-22T10:58:03;9.77;;;3.20;;
7957;SDS011;4024;52.172;5.378;2023-12-22T11:00:30;8.93;;;2.90;;
7957;SDS011;4024;52.172;5.378;2023-12-22T11:02:59;13.07;;;3.07;;
7957;SDS011;4024;52.172;5.378;2023-12-22T11:05:27;6.07;;;2.90;;
7957;SDS011;4024;52.172;5.378;2023-12-22T11:07:55;10.83;;;2.90;;
7957;SDS011;4024;52.172;5.378;2023-12-22T11:10:27;10.93;;;3.00;;
7957;SDS011;4024;52.172;5.378;2023-12-22T11:12:55;6.33;;;2.77;;
7957;SDS011;4024;52.172;5.378;2023-12-22T11:15:22;8.17;;;2.63;;
7957;SDS011;4024;52.172;5.378;2023-12-22T11:17:51;11.67;;;3.10;;
7957;SDS011;4024;52.172;5.378;2023-12-22T11:20:19;6.63;;;2.77;;
7957;SDS011;4024;52.172;5.378;2023-12-22T11:22:47;9.97;;;2.60;;
7957;SDS011;4024;52.172;5.378;2023-12-22T11:25:15;6.27;;;2.90;;
7957;SDS011;4024;52.172;5.378;2023-12-22T11:27:43;7.83;;;2.63;;
7957;SDS011;4024;52.172;5.378;2023-12-22T11:30:10;6.63;;;2.93;;
7957;SDS011;4024;52.172;5.378;2023-12-22T11:32:37;11.10;;;2.80;;
7957;SDS011;4024;52.172;5.378;2023-12-22T11:35:05;10.83;;;3.33;;
7957;SDS011;4024;52.172;5.378;2023-12-22T11:37:32;12.23;;;3.37;;
7957;SDS011;4024;52.172;5.378;2023-12-22T11:40:00;10.50;;;3.50;;
7957;SDS011;4024;52.172;5.378;2023-12-22T11:42:28;8.30;;;2.60;;
7957;SDS011;4024;52.172;5.378;2023-12-22T11:44:57;12.67;;;3.40;;
7957;SDS011;4024;52.172;5.378;2023-12-22T11:47:23;8.23;;;2.67;;
7957;SDS011;4024;52.172;5.378;2023-12-22T11:49:49;10.60;;;3.97;;
7957;SDS011;4024;52.172;5.378;2023-12-22T11:52:16;12.87;;;3.00;;
7957;SDS011;4024;52.172;5.378;2023-12-22T11:54:43;13.57;;;3.23;;
7957;SDS011;4024;52.172;5.378;2023-12-22T11:59:58;7.07;;;2.20;;
7957;SDS011;4024;52.172;5.378;2023-12-22T12:02:29;11.03;;;3.23;;
7957;SDS011;4024;52.172;5.378;2023-12-22T12:04:57;11.97;;;3.00;;
7957;SDS011;4024;52.172;5.378;2023-12-22T12:10:13;9.30;;;3.27;;
7957;SDS011;4024;52.172;5.378;2023-12-22T12:13:07;11.20;;;3.60;;
7957;SDS011;4024;52.172;5.378;2023-12-22T12:15:35;10.77;;;3.17;;
7957;SDS011;4024;52.172;5.378;2023-12-22T12:18:01;12.57;;;3.03;;
7957;SDS011;4024;52.172;5.378;2023-12-22T12:20:27;10.60;;;3.10;;
7957;SDS011;4024;52.172;5.378;2023-12-22T12:22:54;10.47;;;3.10;;
7957;SDS011;4024;52.172;5.378;2023-12-22T12:25:22;8.30;;;2.57;;
7957;SDS011;4024;52.172;5.378;2023-12-22T12:28:00;9.70;;;2.60;;
7957;SDS011;4024;52.172;5.378;2023-12-22T12:30:27;9.30;;;2.90;;
7957;SDS011;4024;52.172;5.378;2023-12-22T12:32:53;7.30;;;2.40;;
7957;SDS011;4024;52.172;5.378;2023-12-22T12:35:19;9.27;;;2.50;;
7957;SDS011;4024;52.172;5.378;2023-12-22T12:37:47;14.50;;;2.83;;
7957;SDS011;4024;52.172;5.378;2023-12-22T12:40:13;10.23;;;2.67;;
7957;SDS011;4024;52.172;5.378;2023-12-22T12:42:44;15.17;;;3.47;;
7957;SDS011;4024;52.172;5.378;2023-12-22T12:45:10;6.03;;;2.77;;
7957;SDS011;4024;52.172;5.378;2023-12-22T12:47:35;8.20;;;2.77;;
7957;SDS011;4024;52.172;5.378;2023-12-22T12:50:01;13.57;;;2.97;;
7957;SDS011;4024;52.172;5.378;2023-12-22T12:52:28;6.67;;;2.60;;
7957;SDS011;4024;52.172;5.378;2023-12-22T12:54:54;10.97;;;3.10;;
7957;SDS011;4024;52.172;5.378;2023-12-22T12:57:21;6.80;;;2.73;;
7957;SDS011;4024;52.172;5.378;2023-12-22T12:59:47;7.87;;;2.77;;
7957;SDS011;4024;52.172;5.378;2023-12-22T13:02:16;8.33;;;3.00;;
7957;SDS011;4024;52.172;5.378;2023-12-22T13:04:43;15.70;;;3.70;;
7957;SDS011;4024;52.172;5.378;2023-12-22T13:07:08;8.17;;;3.30;;
7957;SDS011;4024;52.172;5.378;2023-12-22T13:09:43;13.47;;;3.60;;
7957;SDS011;4024;52.172;5.378;2023-12-22T13:12:09;11.77;;;3.63;;
7957;SDS011;4024;52.172;5.378;2023-12-22T13:14:35;9.97;;;2.97;;
7957;SDS011;4024;52.172;5.378;2023-12-22T13:17:00;10.60;;;2.57;;
7957;SDS011;4024;52.172;5.378;2023-12-22T13:19:26;8.40;;;3.13;;
7957;SDS011;4024;52.172;5.378;2023-12-22T13:21:52;10.60;;;3.00;;
7957;SDS011;4024;52.172;5.378;2023-12-22T13:24:19;6.93;;;3.00;;
7957;SDS011;4024;52.172;5.378;2023-12-22T13:26:45;13.23;;;3.37;;
7957;SDS011;4024;52.172;5.378;2023-12-22T13:29:11;7.37;;;2.53;;
7957;SDS011;4024;52.172;5.378;2023-12-22T13:31:41;12.23;;;3.30;;
7957;SDS011;4024;52.172;5.378;2023-12-22T13:34:11;3.90;;;2.53;;
7957;SDS011;4024;52.172;5.378;2023-12-22T13:36:38;8.27;;;2.73;;
7957;SDS011;4024;52.172;5.378;2023-12-22T13:39:07;9.93;;;3.20;;
7957;SDS011;4024;52.172;5.378;2023-12-22T13:41:34;10.07;;;3.00;;
7957;SDS011;4024;52.172;5.378;2023-12-22T13:44:10;10.73;;;3.47;;
7957;SDS011;4024;52.172;5.378;2023-12-22T13:46:36;7.00;;;3.10;;
7957;SDS011;4024;52.172;5.378;2023-12-22T13:49:05;9.67;;;2.80;;
7957;SDS011;4024;52.172;5.378;2023-12-22T13:51:42;9.00;;;3.17;;
7957;SDS011;4024;52.172;5.378;2023-12-22T13:54:08;11.83;;;3.27;;
7957;SDS011;4024;52.172;5.378;2023-12-22T13:56:38;9.37;;;3.10;;
7957;SDS011;4024;52.172;5.378;2023-12-22T13:59:07;8.53;;;2.63;;
7957;SDS011;4024;52.172;5.378;2023-12-22T14:01:32;10.33;;;2.93;;
7957;SDS011;4024;52.172;5.378;2023-12-22T14:03:59;12.70;;;3.00;;
7957;SDS011;4024;52.172;5.378;2023-12-22T14:06:28;11.93;;;3.43;;
7957;SDS011;4024;52.172;5.378;2023-12-22T14:08:54;9.60;;;3.03;;
7957;SDS011;4024;52.172;5.378;2023-12-22T14:11:20;9.80;;;3.37;;
7957;SDS011;4024;52.172;5.378;2023-12-22T14:13:46;10.50;;;3.73;;
7957;SDS011;4024;52.172;5.378;2023-12-22T14:16:12;13.83;;;3.83;;
7957;SDS011;4024;52.172;5.378;2023-12-22T14:18:37;13.70;;;4.07;;
7957;SDS011;4024;52.172;5.378;2023-12-22T14:21:03;13.13;;;3.50;;
7957;SDS011;4024;52.172;5.378;2023-12-22T14:23:30;9.47;;;3.40;;
7957;SDS011;4024;52.172;5.378;2023-12-22T14:25:56;13.70;;;4.20;;
7957;SDS011;4024;52.172;5.378;2023-12-22T14:28:21;12.40;;;3.40;;
7957;SDS011;4024;52.172;5.378;2023-12-22T14:30:47;8.53;;;3.53;;
7957;SDS011;4024;52.172;5.378;2023-12-22T14:33:12;11.57;;;3.33;;
7957;SDS011;4024;52.172;5.378;2023-12-22T14:35:39;12.80;;;3.83;;
7957;SDS011;4024;52.172;5.378;2023-12-22T14:38:04;8.10;;;3.33;;
7957;SDS011;4024;52.172;5.378;2023-12-22T14:40:30;10.60;;;3.43;;
7957;SDS011;4024;52.172;5.378;2023-12-22T14:42:56;9.93;;;3.30;;
7957;SDS011;4024;52.172;5.378;2023-12-22T14:45:21;16.47;;;3.60;;
7957;SDS011;4024;52.172;5.378;2023-12-22T14:47:48;13.70;;;3.67;;
7957;SDS011;4024;52.172;5.378;2023-12-22T14:50:13;11.37;;;3.50;;
7957;SDS011;4024;52.172;5.378;2023-12-22T14:52:39;10.87;;;3.37;;
7957;SDS011;4024;52.172;5.378;2023-12-22T14:55:05;10.67;;;3.73;;
7957;SDS011;4024;52.172;5.378;2023-12-22T14:57:31;12.93;;;3.73;;
7957;SDS011;4024;52.172;5.378;2023-12-22T14:59:58;16.50;;;4.43;;
7957;SDS011;4024;52.172;5.378;2023-12-22T15:02:24;11.83;;;3.67;;
7957;SDS011;4024;52.172;5.378;2023-12-22T15:04:50;13.47;;;4.03;;
7957;SDS011;4024;52.172;5.378;2023-12-22T15:07:16;13.73;;;3.90;;
7957;SDS011;4024;52.172;5.378;2023-12-22T15:09:45;11.33;;;4.20;;
7957;SDS011;4024;52.172;5.378;2023-12-22T15:12:13;14.27;;;4.07;;